sensor_id;sensor_type;location;lat;lon;timestamp;P1;durP1;ratioP1;P2;durP2;ratioP2
18738;SDS011;9498;51.862;19.460;2023-02-03T00:02:44;7.57;;;2.80;;
18738;SDS011;9498;51.862;19.460;2023-02-03T00:05:11;5.87;;;2.20;;
18738;SDS011;9498;51.862;19.460;2023-02-03T00:07:39;7.83;;;2.30;;
18738;SDS011;9498;51.862;19.460;2023-02-03T00:10:08;6.07;;;2.27;;
18738;SDS011;9498;51.862;19.460;2023-02-03T00:12:36;8.33;;;2.77;;
18738;SDS011;9498;51.862;19.460;2023-02-03T00:15:04;4.90;;;2.60;;
18738;SDS011;9498;51.862;19.460;2023-02-03T00:17:31;9.40;;;3.00;;
18738;SDS011;9498;51.862;19.460;2023-02-03T00:20:00;6.13;;;2.60;;
18738;SDS011;9498;51.862;19.460;2023-02-03T00:22:28;6.03;;;2.80;;
18738;SDS011;9498;51.862;19.460;2023-02-03T00:24:55;10.97;;;3.17;;
18738;SDS011;9498;51.862;19.460;2023-02-03T00:27:22;9.13;;;3.67;;
18738;SDS011;9498;51.862;19.460;2023-02-03T00:29:50;10.83;;;3.43;;
18738;SDS011;9498;51.862;19.460;2023-02-03T00:32:17;9.90;;;3.10;;
18738;SDS011;9498;51.862;19.460;2023-02-03T00:34:45;8.67;;;3.07;;
18738;SDS011;9498;51.862;19.460;2023-02-03T00:37:13;11.37;;;4.30;;
18738;SDS011;9498;51.862;19.460;2023-02-03T00:39:41;12.13;;;4.47;;
18738;SDS011;9498;51.862;19.460;2023-02-03T00:42:08;17.10;;;6.43;;
18738;SDS011;9498;51.862;19.460;2023-02-03T00:44:36;16.20;;;5.50;;
18738;SDS011;9498;51.862;19.460;2023-02-03T00:47:03;13.90;;;5.40;;
18738;SDS011;9498;51.862;19.460;2023-02-03T00:49:31;10.17;;;4.20;;
18738;SDS011;9498;51.862;19.460;2023-02-03T00:51:58;11.03;;;4.77;;
18738;SDS011;9498;51.862;19.460;2023-02-03T00:54:27;12.87;;;5.33;;
18738;SDS011;9498;51.862;19.460;2023-02-03T00:56:54;7.53;;;3.70;;
18738;SDS011;9498;51.862;19.460;2023-02-03T00:59:22;10.67;;;3.60;;
18738;SDS011;9498;51.862;19.460;2023-02-03T01:01:49;10.37;;;3.23;;
18738;SDS011;9498;51.862;19.460;2023-02-03T01:04:16;11.47;;;3.20;;
18738;SDS011;9498;51.862;19.460;2023-02-03T01:06:44;10.13;;;3.70;;
18738;SDS011;9498;51.862;19.460;2023-02-03T01:09:11;9.70;;;4.13;;
18738;SDS011;9498;51.862;19.460;2023-02-03T01:11:40;11.23;;;3.40;;
18738;SDS011;9498;51.862;19.460;2023-02-03T01:14:08;7.53;;;3.40;;
18738;SDS011;9498;51.862;19.460;2023-02-03T01:16:35;7.67;;;2.83;;
18738;SDS011;9498;51.862;19.460;2023-02-03T01:19:04;7.67;;;3.30;;
18738;SDS011;9498;51.862;19.460;2023-02-03T01:21:31;9.15;;;3.80;;
18738;SDS011;9498;51.862;19.460;2023-02-03T01:24:00;11.07;;;4.23;;
18738;SDS011;9498;51.862;19.460;2023-02-03T01:26:27;10.43;;;3.40;;
18738;SDS011;9498;51.862;19.460;2023-02-03T01:28:57;8.13;;;2.47;;
18738;SDS011;9498;51.862;19.460;2023-02-03T01:31:25;6.17;;;2.67;;
18738;SDS011;9498;51.862;19.460;2023-02-03T01:33:53;5.83;;;2.07;;
18738;SDS011;9498;51.862;19.460;2023-02-03T01:36:22;7.90;;;2.47;;
18738;SDS011;9498;51.862;19.460;2023-02-03T01:38:49;5.73;;;2.60;;
18738;SDS011;9498;51.862;19.460;2023-02-03T01:41:18;18.00;;;6.20;;
18738;SDS011;9498;51.862;19.460;2023-02-03T01:43:46;29.13;;;8.93;;
18738;SDS011;9498;51.862;19.460;2023-02-03T01:46:21;23.60;;;7.07;;
18738;SDS011;9498;51.862;19.460;2023-02-03T01:48:49;9.73;;;3.80;;
18738;SDS011;9498;51.862;19.460;2023-02-03T01:51:17;10.52;;;3.53;;
18738;SDS011;9498;51.862;19.460;2023-02-03T01:53:45;8.57;;;2.97;;
18738;SDS011;9498;51.862;19.460;2023-02-03T01:56:12;7.37;;;2.87;;
18738;SDS011;9498;51.862;19.460;2023-02-03T01:58:40;5.73;;;2.80;;
18738;SDS011;9498;51.862;19.460;2023-02-03T02:01:07;9.10;;;3.27;;
18738;SDS011;9498;51.862;19.460;2023-02-03T02:03:37;10.20;;;3.43;;
18738;SDS011;9498;51.862;19.460;2023-02-03T02:06:06;17.40;;;6.20;;
18738;SDS011;9498;51.862;19.460;2023-02-03T02:08:34;11.73;;;3.60;;
18738;SDS011;9498;51.862;19.460;2023-02-03T02:11:02;8.57;;;3.00;;
18738;SDS011;9498;51.862;19.460;2023-02-03T02:13:30;6.23;;;3.13;;
18738;SDS011;9498;51.862;19.460;2023-02-03T02:16:02;7.97;;;2.70;;
18738;SDS011;9498;51.862;19.460;2023-02-03T02:18:39;9.20;;;3.13;;
18738;SDS011;9498;51.862;19.460;2023-02-03T02:21:20;7.60;;;2.53;;
18738;SDS011;9498;51.862;19.460;2023-02-03T02:24:02;6.07;;;2.50;;
18738;SDS011;9498;51.862;19.460;2023-02-03T02:29:24;6.60;;;2.37;;
18738;SDS011;9498;51.862;19.460;2023-02-03T02:31:57;5.10;;;2.40;;
18738;SDS011;9498;51.862;19.460;2023-02-03T02:34:29;6.40;;;2.80;;
18738;SDS011;9498;51.862;19.460;2023-02-03T02:37:00;7.37;;;2.20;;
18738;SDS011;9498;51.862;19.460;2023-02-03T02:39:30;6.73;;;2.63;;
18738;SDS011;9498;51.862;19.460;2023-02-03T02:42:00;6.90;;;2.83;;
18738;SDS011;9498;51.862;19.460;2023-02-03T02:44:32;9.63;;;2.67;;
18738;SDS011;9498;51.862;19.460;2023-02-03T02:47:03;6.37;;;2.87;;
18738;SDS011;9498;51.862;19.460;2023-02-03T02:49:33;6.37;;;3.03;;
18738;SDS011;9498;51.862;19.460;2023-02-03T02:52:02;6.73;;;2.60;;
18738;SDS011;9498;51.862;19.460;2023-02-03T02:54:30;5.80;;;2.80;;
18738;SDS011;9498;51.862;19.460;2023-02-03T02:56:59;8.67;;;3.30;;
18738;SDS011;9498;51.862;19.460;2023-02-03T02:59:28;9.97;;;3.30;;
18738;SDS011;9498;51.862;19.460;2023-02-03T03:01:56;10.00;;;3.47;;
18738;SDS011;9498;51.862;19.460;2023-02-03T03:04:25;10.10;;;4.33;;
18738;SDS011;9498;51.862;19.460;2023-02-03T03:06:54;15.37;;;4.57;;
18738;SDS011;9498;51.862;19.460;2023-02-03T03:09:24;14.63;;;3.20;;
18738;SDS011;9498;51.862;19.460;2023-02-03T03:11:55;7.67;;;2.80;;
18738;SDS011;9498;51.862;19.460;2023-02-03T03:14:25;9.17;;;3.17;;
18738;SDS011;9498;51.862;19.460;2023-02-03T03:16:55;8.07;;;3.17;;
18738;SDS011;9498;51.862;19.460;2023-02-03T03:19:25;8.33;;;2.87;;
18738;SDS011;9498;51.862;19.460;2023-02-03T03:21:55;7.50;;;3.17;;
18738;SDS011;9498;51.862;19.460;2023-02-03T03:24:24;8.13;;;2.67;;
18738;SDS011;9498;51.862;19.460;2023-02-03T03:26:54;6.93;;;2.37;;
18738;SDS011;9498;51.862;19.460;2023-02-03T03:29:23;6.33;;;3.20;;
18738;SDS011;9498;51.862;19.460;2023-02-03T03:31:52;6.77;;;3.13;;
18738;SDS011;9498;51.862;19.460;2023-02-03T03:34:19;6.10;;;3.13;;
18738;SDS011;9498;51.862;19.460;2023-02-03T03:36:49;8.10;;;3.00;;
18738;SDS011;9498;51.862;19.460;2023-02-03T03:39:21;6.90;;;3.50;;
18738;SDS011;9498;51.862;19.460;2023-02-03T03:41:54;10.93;;;3.57;;
18738;SDS011;9498;51.862;19.460;2023-02-03T03:44:24;7.00;;;3.77;;
18738;SDS011;9498;51.862;19.460;2023-02-03T03:46:55;10.18;;;4.30;;
18738;SDS011;9498;51.862;19.460;2023-02-03T03:49:25;12.13;;;4.20;;
18738;SDS011;9498;51.862;19.460;2023-02-03T03:51:56;12.47;;;4.17;;
18738;SDS011;9498;51.862;19.460;2023-02-03T03:54:24;13.53;;;4.63;;
18738;SDS011;9498;51.862;19.460;2023-02-03T03:56:53;10.00;;;4.43;;
18738;SDS011;9498;51.862;19.460;2023-02-03T03:59:22;11.17;;;4.53;;
18738;SDS011;9498;51.862;19.460;2023-02-03T04:01:51;10.73;;;4.87;;
18738;SDS011;9498;51.862;19.460;2023-02-03T04:04:19;15.80;;;5.67;;
18738;SDS011;9498;51.862;19.460;2023-02-03T04:06:47;11.53;;;5.10;;
18738;SDS011;9498;51.862;19.460;2023-02-03T04:09:15;15.07;;;6.17;;
18738;SDS011;9498;51.862;19.460;2023-02-03T04:11:43;12.93;;;5.03;;
18738;SDS011;9498;51.862;19.460;2023-02-03T04:14:31;13.33;;;5.70;;
18738;SDS011;9498;51.862;19.460;2023-02-03T04:17:00;15.17;;;6.77;;
18738;SDS011;9498;51.862;19.460;2023-02-03T04:19:27;14.63;;;6.27;;
18738;SDS011;9498;51.862;19.460;2023-02-03T04:21:55;17.17;;;6.37;;
18738;SDS011;9498;51.862;19.460;2023-02-03T04:24:24;14.93;;;6.60;;
18738;SDS011;9498;51.862;19.460;2023-02-03T04:26:51;15.37;;;7.10;;
18738;SDS011;9498;51.862;19.460;2023-02-03T04:29:19;16.40;;;7.03;;
18738;SDS011;9498;51.862;19.460;2023-02-03T04:31:46;17.27;;;7.97;;
18738;SDS011;9498;51.862;19.460;2023-02-03T04:34:13;20.03;;;8.10;;
18738;SDS011;9498;51.862;19.460;2023-02-03T04:36:41;18.03;;;8.27;;
18738;SDS011;9498;51.862;19.460;2023-02-03T04:39:09;21.17;;;9.47;;
18738;SDS011;9498;51.862;19.460;2023-02-03T04:41:37;18.67;;;8.60;;
18738;SDS011;9498;51.862;19.460;2023-02-03T04:44:05;24.50;;;9.50;;
18738;SDS011;9498;51.862;19.460;2023-02-03T04:46:33;23.70;;;10.33;;
18738;SDS011;9498;51.862;19.460;2023-02-03T04:49:00;22.80;;;9.37;;
18738;SDS011;9498;51.862;19.460;2023-02-03T04:51:28;19.53;;;8.83;;
18738;SDS011;9498;51.862;19.460;2023-02-03T04:53:55;17.40;;;7.93;;
18738;SDS011;9498;51.862;19.460;2023-02-03T04:56:23;21.47;;;8.10;;
18738;SDS011;9498;51.862;19.460;2023-02-03T04:58:51;16.30;;;7.73;;
18738;SDS011;9498;51.862;19.460;2023-02-03T05:01:19;16.70;;;7.43;;
18738;SDS011;9498;51.862;19.460;2023-02-03T05:03:46;16.93;;;8.03;;
18738;SDS011;9498;51.862;19.460;2023-02-03T05:06:14;17.60;;;7.47;;
18738;SDS011;9498;51.862;19.460;2023-02-03T05:08:41;16.60;;;7.20;;
18738;SDS011;9498;51.862;19.460;2023-02-03T05:11:08;20.30;;;7.57;;
18738;SDS011;9498;51.862;19.460;2023-02-03T05:13:36;17.40;;;7.33;;
18738;SDS011;9498;51.862;19.460;2023-02-03T05:16:05;20.57;;;8.23;;
18738;SDS011;9498;51.862;19.460;2023-02-03T05:18:33;17.60;;;8.50;;
18738;SDS011;9498;51.862;19.460;2023-02-03T05:21:00;22.50;;;8.00;;
18738;SDS011;9498;51.862;19.460;2023-02-03T05:23:28;20.87;;;7.80;;
18738;SDS011;9498;51.862;19.460;2023-02-03T05:25:55;17.33;;;7.60;;
18738;SDS011;9498;51.862;19.460;2023-02-03T05:28:22;19.10;;;7.47;;
18738;SDS011;9498;51.862;19.460;2023-02-03T05:30:50;17.20;;;7.47;;
18738;SDS011;9498;51.862;19.460;2023-02-03T05:33:19;20.57;;;8.13;;
18738;SDS011;9498;51.862;19.460;2023-02-03T05:35:46;19.57;;;7.57;;
18738;SDS011;9498;51.862;19.460;2023-02-03T05:38:14;16.33;;;7.20;;
18738;SDS011;9498;51.862;19.460;2023-02-03T05:40:41;20.67;;;7.60;;
18738;SDS011;9498;51.862;19.460;2023-02-03T05:43:26;21.58;;;8.85;;
18738;SDS011;9498;51.862;19.460;2023-02-03T05:45:54;20.90;;;7.83;;
18738;SDS011;9498;51.862;19.460;2023-02-03T05:48:22;20.10;;;8.20;;
18738;SDS011;9498;51.862;19.460;2023-02-03T05:50:50;20.70;;;8.23;;
18738;SDS011;9498;51.862;19.460;2023-02-03T05:53:17;22.53;;;8.83;;
18738;SDS011;9498;51.862;19.460;2023-02-03T05:55:46;18.93;;;8.03;;
18738;SDS011;9498;51.862;19.460;2023-02-03T05:58:13;20.30;;;7.57;;
18738;SDS011;9498;51.862;19.460;2023-02-03T06:00:41;20.23;;;8.47;;
18738;SDS011;9498;51.862;19.460;2023-02-03T06:03:08;20.20;;;8.00;;
18738;SDS011;9498;51.862;19.460;2023-02-03T06:05:37;27.17;;;8.13;;
18738;SDS011;9498;51.862;19.460;2023-02-03T06:08:05;20.97;;;8.30;;
18738;SDS011;9498;51.862;19.460;2023-02-03T06:10:33;19.53;;;8.20;;
18738;SDS011;9498;51.862;19.460;2023-02-03T06:13:06;15.97;;;7.07;;
18738;SDS011;9498;51.862;19.460;2023-02-03T06:15:34;20.13;;;7.80;;
18738;SDS011;9498;51.862;19.460;2023-02-03T06:18:02;18.90;;;7.50;;
18738;SDS011;9498;51.862;19.460;2023-02-03T06:20:29;18.67;;;7.97;;
18738;SDS011;9498;51.862;19.460;2023-02-03T06:22:58;17.93;;;7.97;;
18738;SDS011;9498;51.862;19.460;2023-02-03T06:25:25;17.50;;;7.70;;
18738;SDS011;9498;51.862;19.460;2023-02-03T06:27:53;17.93;;;8.03;;
18738;SDS011;9498;51.862;19.460;2023-02-03T06:30:20;17.87;;;7.70;;
18738;SDS011;9498;51.862;19.460;2023-02-03T06:32:48;13.70;;;6.93;;
18738;SDS011;9498;51.862;19.460;2023-02-03T06:35:15;16.63;;;6.97;;
18738;SDS011;9498;51.862;19.460;2023-02-03T06:37:43;16.97;;;7.03;;
18738;SDS011;9498;51.862;19.460;2023-02-03T06:40:12;15.30;;;6.67;;
18738;SDS011;9498;51.862;19.460;2023-02-03T06:42:39;19.70;;;8.40;;
18738;SDS011;9498;51.862;19.460;2023-02-03T06:45:10;19.87;;;7.60;;
18738;SDS011;9498;51.862;19.460;2023-02-03T06:47:38;19.57;;;7.90;;
18738;SDS011;9498;51.862;19.460;2023-02-03T06:50:06;20.13;;;8.90;;
18738;SDS011;9498;51.862;19.460;2023-02-03T06:52:34;19.37;;;7.93;;
18738;SDS011;9498;51.862;19.460;2023-02-03T06:55:02;19.00;;;8.27;;
18738;SDS011;9498;51.862;19.460;2023-02-03T06:57:31;16.63;;;7.73;;
18738;SDS011;9498;51.862;19.460;2023-02-03T06:59:58;15.70;;;6.97;;
18738;SDS011;9498;51.862;19.460;2023-02-03T07:02:25;19.23;;;7.50;;
18738;SDS011;9498;51.862;19.460;2023-02-03T07:04:53;17.50;;;7.53;;
18738;SDS011;9498;51.862;19.460;2023-02-03T07:07:20;24.40;;;7.50;;
18738;SDS011;9498;51.862;19.460;2023-02-03T07:09:48;18.93;;;6.53;;
18738;SDS011;9498;51.862;19.460;2023-02-03T07:12:15;16.47;;;7.47;;
18738;SDS011;9498;51.862;19.460;2023-02-03T07:14:44;18.00;;;6.60;;
18738;SDS011;9498;51.862;19.460;2023-02-03T07:17:11;18.13;;;7.67;;
18738;SDS011;9498;51.862;19.460;2023-02-03T07:19:39;14.43;;;7.17;;
18738;SDS011;9498;51.862;19.460;2023-02-03T07:22:06;16.20;;;6.73;;
18738;SDS011;9498;51.862;19.460;2023-02-03T07:24:35;18.00;;;7.77;;
18738;SDS011;9498;51.862;19.460;2023-02-03T07:27:02;17.53;;;8.20;;
18738;SDS011;9498;51.862;19.460;2023-02-03T07:29:30;16.80;;;7.30;;
18738;SDS011;9498;51.862;19.460;2023-02-03T07:31:59;18.77;;;7.03;;
18738;SDS011;9498;51.862;19.460;2023-02-03T07:34:26;16.27;;;7.10;;
18738;SDS011;9498;51.862;19.460;2023-02-03T07:36:54;19.73;;;7.37;;
18738;SDS011;9498;51.862;19.460;2023-02-03T07:39:21;21.97;;;7.53;;
18738;SDS011;9498;51.862;19.460;2023-02-03T07:41:48;13.17;;;7.17;;
18738;SDS011;9498;51.862;19.460;2023-02-03T07:44:16;20.13;;;7.03;;
18738;SDS011;9498;51.862;19.460;2023-02-03T07:46:43;18.70;;;6.83;;
18738;SDS011;9498;51.862;19.460;2023-02-03T07:49:12;19.63;;;6.07;;
18738;SDS011;9498;51.862;19.460;2023-02-03T07:51:40;15.60;;;6.57;;
18738;SDS011;9498;51.862;19.460;2023-02-03T07:54:08;14.43;;;6.03;;
18738;SDS011;9498;51.862;19.460;2023-02-03T07:56:35;17.37;;;6.23;;
18738;SDS011;9498;51.862;19.460;2023-02-03T07:59:02;13.43;;;5.70;;
18738;SDS011;9498;51.862;19.460;2023-02-03T08:01:30;17.27;;;6.00;;
18738;SDS011;9498;51.862;19.460;2023-02-03T08:03:58;14.77;;;5.63;;
18738;SDS011;9498;51.862;19.460;2023-02-03T08:06:30;12.40;;;5.73;;
18738;SDS011;9498;51.862;19.460;2023-02-03T08:08:58;15.80;;;5.57;;
18738;SDS011;9498;51.862;19.460;2023-02-03T08:11:25;11.40;;;5.00;;
18738;SDS011;9498;51.862;19.460;2023-02-03T08:13:53;17.60;;;5.53;;
18738;SDS011;9498;51.862;19.460;2023-02-03T08:16:20;13.77;;;5.57;;
18738;SDS011;9498;51.862;19.460;2023-02-03T08:18:48;16.07;;;6.20;;
18738;SDS011;9498;51.862;19.460;2023-02-03T08:21:15;14.33;;;5.50;;
18738;SDS011;9498;51.862;19.460;2023-02-03T08:23:44;12.40;;;5.87;;
18738;SDS011;9498;51.862;19.460;2023-02-03T08:26:11;20.03;;;6.17;;
18738;SDS011;9498;51.862;19.460;2023-02-03T08:28:39;11.87;;;5.70;;
18738;SDS011;9498;51.862;19.460;2023-02-03T08:31:09;11.33;;;5.70;;
18738;SDS011;9498;51.862;19.460;2023-02-03T08:33:37;13.20;;;5.60;;
18738;SDS011;9498;51.862;19.460;2023-02-03T08:36:05;13.37;;;5.80;;
18738;SDS011;9498;51.862;19.460;2023-02-03T08:38:32;14.37;;;4.97;;
18738;SDS011;9498;51.862;19.460;2023-02-03T08:41:05;11.77;;;5.87;;
18738;SDS011;9498;51.862;19.460;2023-02-03T08:43:34;13.57;;;5.80;;
18738;SDS011;9498;51.862;19.460;2023-02-03T08:46:01;8.70;;;4.80;;
18738;SDS011;9498;51.862;19.460;2023-02-03T08:48:29;18.60;;;6.37;;
18738;SDS011;9498;51.862;19.460;2023-02-03T08:50:56;15.83;;;5.83;;
18738;SDS011;9498;51.862;19.460;2023-02-03T08:53:24;14.17;;;5.77;;
18738;SDS011;9498;51.862;19.460;2023-02-03T08:55:51;11.33;;;5.47;;
18738;SDS011;9498;51.862;19.460;2023-02-03T08:58:21;13.13;;;5.57;;
18738;SDS011;9498;51.862;19.460;2023-02-03T09:00:49;12.63;;;5.67;;
18738;SDS011;9498;51.862;19.460;2023-02-03T09:03:17;12.40;;;5.90;;
18738;SDS011;9498;51.862;19.460;2023-02-03T09:05:45;12.87;;;5.97;;
18738;SDS011;9498;51.862;19.460;2023-02-03T09:08:12;14.00;;;6.00;;
18738;SDS011;9498;51.862;19.460;2023-02-03T09:10:40;12.53;;;5.50;;
18738;SDS011;9498;51.862;19.460;2023-02-03T09:13:07;12.57;;;4.73;;
18738;SDS011;9498;51.862;19.460;2023-02-03T09:15:36;10.00;;;4.93;;
18738;SDS011;9498;51.862;19.460;2023-02-03T09:18:03;14.23;;;5.80;;
18738;SDS011;9498;51.862;19.460;2023-02-03T09:20:31;13.57;;;5.83;;
18738;SDS011;9498;51.862;19.460;2023-02-03T09:22:58;12.13;;;4.83;;
18738;SDS011;9498;51.862;19.460;2023-02-03T09:25:26;10.50;;;5.30;;
18738;SDS011;9498;51.862;19.460;2023-02-03T09:27:53;16.93;;;5.67;;
18738;SDS011;9498;51.862;19.460;2023-02-03T09:30:20;14.17;;;5.50;;
18738;SDS011;9498;51.862;19.460;2023-02-03T09:32:52;9.50;;;5.00;;
18738;SDS011;9498;51.862;19.460;2023-02-03T09:35:20;18.07;;;5.07;;
18738;SDS011;9498;51.862;19.460;2023-02-03T09:37:48;12.67;;;5.07;;
18738;SDS011;9498;51.862;19.460;2023-02-03T09:40:17;15.23;;;6.00;;
18738;SDS011;9498;51.862;19.460;2023-02-03T09:43:00;8.90;;;4.47;;
18738;SDS011;9498;51.862;19.460;2023-02-03T09:45:30;13.37;;;5.20;;
18738;SDS011;9498;51.862;19.460;2023-02-03T09:47:59;15.80;;;5.77;;
18738;SDS011;9498;51.862;19.460;2023-02-03T09:50:30;15.23;;;5.63;;
18738;SDS011;9498;51.862;19.460;2023-02-03T09:53:00;16.57;;;5.50;;
18738;SDS011;9498;51.862;19.460;2023-02-03T09:55:31;13.10;;;5.67;;
18738;SDS011;9498;51.862;19.460;2023-02-03T09:58:02;15.50;;;5.57;;
18738;SDS011;9498;51.862;19.460;2023-02-03T10:00:31;16.83;;;6.20;;
18738;SDS011;9498;51.862;19.460;2023-02-03T10:03:04;12.37;;;5.00;;
18738;SDS011;9498;51.862;19.460;2023-02-03T10:05:41;11.07;;;5.60;;
18738;SDS011;9498;51.862;19.460;2023-02-03T10:08:15;14.17;;;6.13;;
18738;SDS011;9498;51.862;19.460;2023-02-03T10:10:47;13.00;;;5.40;;
18738;SDS011;9498;51.862;19.460;2023-02-03T10:13:34;14.33;;;6.23;;
18738;SDS011;9498;51.862;19.460;2023-02-03T10:16:09;18.30;;;6.40;;
18738;SDS011;9498;51.862;19.460;2023-02-03T10:18:40;13.23;;;5.90;;
18738;SDS011;9498;51.862;19.460;2023-02-03T10:21:11;17.17;;;6.03;;
18738;SDS011;9498;51.862;19.460;2023-02-03T10:23:40;21.63;;;7.93;;
18738;SDS011;9498;51.862;19.460;2023-02-03T10:26:11;17.67;;;7.33;;
18738;SDS011;9498;51.862;19.460;2023-02-03T10:28:41;16.87;;;6.30;;
18738;SDS011;9498;51.862;19.460;2023-02-03T10:31:13;20.80;;;7.10;;
18738;SDS011;9498;51.862;19.460;2023-02-03T10:33:44;13.07;;;5.70;;
18738;SDS011;9498;51.862;19.460;2023-02-03T10:36:14;15.63;;;7.30;;
18738;SDS011;9498;51.862;19.460;2023-02-03T10:38:45;18.58;;;8.07;;
18738;SDS011;9498;51.862;19.460;2023-02-03T10:41:15;17.60;;;7.00;;
18738;SDS011;9498;51.862;19.460;2023-02-03T10:43:44;15.30;;;6.13;;
18738;SDS011;9498;51.862;19.460;2023-02-03T10:46:17;21.77;;;7.20;;
18738;SDS011;9498;51.862;19.460;2023-02-03T10:48:47;12.27;;;5.70;;
18738;SDS011;9498;51.862;19.460;2023-02-03T10:51:17;11.03;;;5.80;;
18738;SDS011;9498;51.862;19.460;2023-02-03T10:53:45;11.77;;;5.30;;
18738;SDS011;9498;51.862;19.460;2023-02-03T10:56:17;17.25;;;7.78;;
18738;SDS011;9498;51.862;19.460;2023-02-03T10:58:47;18.60;;;8.30;;
18738;SDS011;9498;51.862;19.460;2023-02-03T11:01:16;14.50;;;7.40;;
18738;SDS011;9498;51.862;19.460;2023-02-03T11:03:44;15.40;;;7.60;;
18738;SDS011;9498;51.862;19.460;2023-02-03T11:06:21;18.50;;;8.17;;
18738;SDS011;9498;51.862;19.460;2023-02-03T11:08:49;17.13;;;7.10;;
18738;SDS011;9498;51.862;19.460;2023-02-03T11:11:19;12.83;;;5.90;;
18738;SDS011;9498;51.862;19.460;2023-02-03T11:13:51;23.03;;;9.23;;
18738;SDS011;9498;51.862;19.460;2023-02-03T11:16:19;25.10;;;8.00;;
18738;SDS011;9498;51.862;19.460;2023-02-03T11:18:53;20.03;;;7.27;;
18738;SDS011;9498;51.862;19.460;2023-02-03T11:21:23;14.27;;;6.20;;
18738;SDS011;9498;51.862;19.460;2023-02-03T11:23:55;26.57;;;9.10;;
18738;SDS011;9498;51.862;19.460;2023-02-03T11:26:24;15.50;;;6.90;;
18738;SDS011;9498;51.862;19.460;2023-02-03T11:28:53;13.73;;;6.03;;
18738;SDS011;9498;51.862;19.460;2023-02-03T11:31:23;15.57;;;6.83;;
18738;SDS011;9498;51.862;19.460;2023-02-03T11:33:55;14.50;;;5.73;;
18738;SDS011;9498;51.862;19.460;2023-02-03T11:36:26;14.97;;;6.13;;
18738;SDS011;9498;51.862;19.460;2023-02-03T11:39:07;16.13;;;7.33;;
18738;SDS011;9498;51.862;19.460;2023-02-03T11:41:35;13.20;;;6.80;;
18738;SDS011;9498;51.862;19.460;2023-02-03T11:44:09;18.23;;;6.77;;
18738;SDS011;9498;51.862;19.460;2023-02-03T11:46:37;18.23;;;7.30;;
18738;SDS011;9498;51.862;19.460;2023-02-03T11:49:07;15.27;;;7.47;;
18738;SDS011;9498;51.862;19.460;2023-02-03T11:51:39;15.13;;;6.23;;
18738;SDS011;9498;51.862;19.460;2023-02-03T11:54:13;15.30;;;6.73;;
18738;SDS011;9498;51.862;19.460;2023-02-03T11:59:35;20.17;;;7.17;;
18738;SDS011;9498;51.862;19.460;2023-02-03T12:02:19;14.60;;;6.43;;
18738;SDS011;9498;51.862;19.460;2023-02-03T12:04:59;16.60;;;5.93;;
18738;SDS011;9498;51.862;19.460;2023-02-03T12:07:35;18.10;;;5.73;;
18738;SDS011;9498;51.862;19.460;2023-02-03T12:10:08;13.63;;;6.57;;
18738;SDS011;9498;51.862;19.460;2023-02-03T12:12:44;14.33;;;6.23;;
18738;SDS011;9498;51.862;19.460;2023-02-03T12:15:17;12.30;;;6.47;;
18738;SDS011;9498;51.862;19.460;2023-02-03T12:20:38;16.60;;;7.88;;
18738;SDS011;9498;51.862;19.460;2023-02-03T12:23:12;16.97;;;8.03;;
18738;SDS011;9498;51.862;19.460;2023-02-03T12:25:46;16.83;;;8.10;;
18738;SDS011;9498;51.862;19.460;2023-02-03T12:28:19;19.77;;;9.23;;
18738;SDS011;9498;51.862;19.460;2023-02-03T12:30:48;21.40;;;9.73;;
18738;SDS011;9498;51.862;19.460;2023-02-03T12:33:18;19.33;;;7.90;;
18738;SDS011;9498;51.862;19.460;2023-02-03T12:35:47;16.53;;;7.30;;
18738;SDS011;9498;51.862;19.460;2023-02-03T12:38:20;16.50;;;8.33;;
18738;SDS011;9498;51.862;19.460;2023-02-03T12:40:52;17.13;;;7.57;;
18738;SDS011;9498;51.862;19.460;2023-02-03T12:43:22;20.07;;;9.37;;
18738;SDS011;9498;51.862;19.460;2023-02-03T12:45:52;24.33;;;10.27;;
18738;SDS011;9498;51.862;19.460;2023-02-03T12:48:21;24.50;;;10.93;;
18738;SDS011;9498;51.862;19.460;2023-02-03T12:50:49;26.07;;;10.40;;
18738;SDS011;9498;51.862;19.460;2023-02-03T12:53:20;19.23;;;9.03;;
18738;SDS011;9498;51.862;19.460;2023-02-03T12:55:50;26.57;;;10.20;;
18738;SDS011;9498;51.862;19.460;2023-02-03T12:58:20;111.37;;;28.63;;
18738;SDS011;9498;51.862;19.460;2023-02-03T13:00:50;113.10;;;32.70;;
18738;SDS011;9498;51.862;19.460;2023-02-03T13:03:19;36.10;;;15.30;;
18738;SDS011;9498;51.862;19.460;2023-02-03T13:05:49;36.83;;;13.67;;
18738;SDS011;9498;51.862;19.460;2023-02-03T13:08:24;33.53;;;12.40;;
18738;SDS011;9498;51.862;19.460;2023-02-03T13:10:54;46.43;;;17.27;;
18738;SDS011;9498;51.862;19.460;2023-02-03T13:13:27;40.40;;;16.17;;
18738;SDS011;9498;51.862;19.460;2023-02-03T13:15:55;24.90;;;11.70;;
18738;SDS011;9498;51.862;19.460;2023-02-03T13:18:24;29.63;;;13.57;;
18738;SDS011;9498;51.862;19.460;2023-02-03T13:20:53;21.97;;;11.13;;
18738;SDS011;9498;51.862;19.460;2023-02-03T13:23:22;23.87;;;10.67;;
18738;SDS011;9498;51.862;19.460;2023-02-03T13:25:58;21.83;;;10.87;;
18738;SDS011;9498;51.862;19.460;2023-02-03T13:28:32;26.50;;;11.73;;
18738;SDS011;9498;51.862;19.460;2023-02-03T13:31:06;28.27;;;13.60;;
18738;SDS011;9498;51.862;19.460;2023-02-03T13:39:15;32.47;;;13.27;;
18738;SDS011;9498;51.862;19.460;2023-02-03T13:41:46;25.47;;;12.23;;
18738;SDS011;9498;51.862;19.460;2023-02-03T13:44:15;28.50;;;13.13;;
18738;SDS011;9498;51.862;19.460;2023-02-03T13:46:45;25.43;;;12.40;;
18738;SDS011;9498;51.862;19.460;2023-02-03T13:49:16;36.63;;;17.27;;
18738;SDS011;9498;51.862;19.460;2023-02-03T13:51:47;31.87;;;13.87;;
18738;SDS011;9498;51.862;19.460;2023-02-03T13:54:25;33.80;;;14.37;;
18738;SDS011;9498;51.862;19.460;2023-02-03T13:56:54;31.33;;;13.30;;
18738;SDS011;9498;51.862;19.460;2023-02-03T13:59:27;27.83;;;12.73;;
18738;SDS011;9498;51.862;19.460;2023-02-03T14:07:29;29.57;;;13.63;;
18738;SDS011;9498;51.862;19.460;2023-02-03T14:10:14;30.93;;;14.00;;
18738;SDS011;9498;51.862;19.460;2023-02-03T14:12:55;35.47;;;15.13;;
18738;SDS011;9498;51.862;19.460;2023-02-03T14:15:31;28.37;;;13.70;;
18738;SDS011;9498;51.862;19.460;2023-02-03T14:18:04;40.13;;;17.57;;
18738;SDS011;9498;51.862;19.460;2023-02-03T14:20:39;36.30;;;15.90;;
18738;SDS011;9498;51.862;19.460;2023-02-03T14:23:09;33.33;;;14.10;;
18738;SDS011;9498;51.862;19.460;2023-02-03T14:25:39;31.70;;;12.73;;
18738;SDS011;9498;51.862;19.460;2023-02-03T14:28:09;27.97;;;12.37;;
18738;SDS011;9498;51.862;19.460;2023-02-03T14:33:19;26.80;;;11.27;;
18738;SDS011;9498;51.862;19.460;2023-02-03T14:35:49;22.63;;;10.57;;
18738;SDS011;9498;51.862;19.460;2023-02-03T14:38:17;22.27;;;11.13;;
18738;SDS011;9498;51.862;19.460;2023-02-03T14:40:46;23.43;;;10.93;;
18738;SDS011;9498;51.862;19.460;2023-02-03T14:43:28;24.53;;;10.90;;
18738;SDS011;9498;51.862;19.460;2023-02-03T14:48:46;29.13;;;13.63;;
18738;SDS011;9498;51.862;19.460;2023-02-03T14:51:20;23.47;;;10.77;;
18738;SDS011;9498;51.862;19.460;2023-02-03T14:53:54;22.77;;;10.33;;
18738;SDS011;9498;51.862;19.460;2023-02-03T14:56:26;22.00;;;10.03;;
18738;SDS011;9498;51.862;19.460;2023-02-03T14:59:16;20.03;;;8.90;;
18738;SDS011;9498;51.862;19.460;2023-02-03T15:04:35;21.47;;;8.77;;
18738;SDS011;9498;51.862;19.460;2023-02-03T15:07:03;18.13;;;8.90;;
18738;SDS011;9498;51.862;19.460;2023-02-03T15:09:31;21.37;;;9.37;;
18738;SDS011;9498;51.862;19.460;2023-02-03T15:12:12;23.17;;;9.43;;
18738;SDS011;9498;51.862;19.460;2023-02-03T15:14:41;20.60;;;10.17;;
18738;SDS011;9498;51.862;19.460;2023-02-03T15:17:10;23.50;;;9.70;;
18738;SDS011;9498;51.862;19.460;2023-02-03T15:19:39;31.33;;;14.87;;